International Virtual Aviation Organisation

Russian Federation and Kazakhstan MCD

 

Карточка аэропорта UAKD

Внимание!
Информация на этой странице в стадии наполнения.
Если вы не увидели какой-то информации, или заметили неточность - пожалуйста сообщите нам!
Спасибо!
Команда RU-STAFF
Название аэропортаЖезказган
Название аэропорта (англ.)Zhezkazgan
Превышение1250 ft. (381 m.)
Координаты47°42.618', 67°44.382'
Высота перехода10000
Эшелон переходаby ATC
Коды ответчика0670-0673, 7274-7277
Зона ОрВДНур-Султан РПИ (UACN)
Данные METARUAKD 240812Z 08005MPS 9000 SCT004 SCT010 M10/M12 Q1030 R04/850050 NOSIG RMK QBB130 QFE738/0985
Проноз погоды (TAF)NODATA
NOTAMshow/hide NOTAM
AWOS   TABLE

Информация о ВПП

ВПП Длина ВПП (м.) Покрытие Курс ВПП Частота ILS
042600Асфальтобетон44 
222600Асфальтобетон224110.7

Диспетчерские позиции




Спутниковое изображение